Byfield, Massachusetts
Current Conditions -  °F | °C
As of 2:54 AM on Friday 24 Oct 2014 (Local Time) from KLWM Reporting Station
Light Rain Light Rain  
Wind Chill: 45°   Ceiling: 1000
Heat Index: 49°   Visibility: 9mi
Dew Point: 47°   Wind: 8mph
Humidity: 93%   Direction: 340°NNW
Pressure: 29.69"   Gusts: NA
Location:  42.76°N, 70.95°W
Report Text: KLWM 240654Z 34007KT 9SM -RA OVC010 09/08 A2969 RMK AO2 SLP054 P0003 T00940083
Loading
Personal Weather Stations






























Interactive Weather Map
Tropical Storm Tracking
New forecast layout! Learn more

10-Day Weather Forecast

Advertisements
Track Severe Weather on mobile